createdAt,value
2022-10-30T00:00:03.499Z,0.52
2022-10-30T00:02:33.538Z,0.70
2022-10-30T00:05:00.817Z,0.70
2022-10-30T00:07:28.055Z,0.80
2022-10-30T00:09:55.245Z,0.77
2022-10-30T00:12:22.493Z,0.70
2022-10-30T00:14:49.695Z,1.48
2022-10-30T00:17:16.931Z,1.60
2022-10-30T00:19:44.184Z,1.60
2022-10-30T00:22:11.483Z,1.25
2022-10-30T00:24:38.702Z,1.08
2022-10-30T00:27:06.004Z,1.00
2022-10-30T00:29:33.208Z,0.90
2022-10-30T00:32:00.451Z,0.80
2022-10-30T00:34:27.879Z,1.02
2022-10-30T00:36:55.115Z,0.68
2022-10-30T00:39:22.322Z,0.70
2022-10-30T00:41:49.564Z,0.75
2022-10-30T00:44:35.408Z,0.88
2022-10-30T00:47:05.967Z,0.63
2022-10-30T00:49:36.082Z,1.02
2022-10-30T00:52:04.958Z,0.60
2022-10-30T00:54:34.003Z,1.00
2022-10-30T00:57:01.795Z,0.90
2022-10-30T00:59:31.073Z,0.80
2022-10-30T01:01:58.642Z,0.80
2022-10-30T01:04:29.934Z,0.73
2022-10-30T01:06:58.237Z,0.60
2022-10-30T01:09:25.458Z,0.93
2022-10-30T01:11:52.677Z,1.20
2022-10-30T01:14:20.420Z,1.75
2022-10-30T01:17:02.757Z,1.73
2022-10-30T01:19:48.553Z,1.08
2022-10-30T01:22:18.848Z,0.85
2022-10-30T01:24:54.950Z,0.90
2022-10-30T01:27:22.162Z,0.85
2022-10-30T01:30:08.182Z,0.90
2022-10-30T01:32:42.646Z,0.73
2022-10-30T01:35:21.819Z,0.70
2022-10-30T01:37:54.485Z,0.80
2022-10-30T01:40:21.953Z,0.80
2022-10-30T01:42:50.888Z,0.70
2022-10-30T01:45:22.549Z,0.98
2022-10-30T01:47:49.694Z,0.98
2022-10-30T01:50:29.508Z,0.70
2022-10-30T01:53:01.327Z,0.90
2022-10-30T01:55:51.336Z,1.00
2022-10-30T01:58:21.684Z,0.98
2022-10-30T02:00:53.636Z,0.80
2022-10-30T02:03:21.934Z,1.27
2022-10-30T02:05:50.674Z,1.00
2022-10-30T02:08:18.129Z,0.80
2022-10-30T02:10:45.979Z,0.95
2022-10-30T02:13:13.200Z,0.68
2022-10-30T02:15:40.783Z,0.52
2022-10-30T02:18:09.334Z,0.60
2022-10-30T02:20:36.637Z,0.50
2022-10-30T02:23:04.457Z,0.50
2022-10-30T02:25:31.886Z,0.70
2022-10-30T02:27:59.853Z,0.50
2022-10-30T02:30:27.113Z,0.73
2022-10-30T02:32:54.578Z,0.65
2022-10-30T02:35:21.958Z,0.80
2022-10-30T02:37:49.897Z,1.30
2022-10-30T02:40:17.162Z,0.77
2022-10-30T02:42:44.404Z,1.10
2022-10-30T02:45:11.838Z,0.70
2022-10-30T02:47:39.055Z,1.00
2022-10-30T02:50:06.575Z,0.82
2022-10-30T02:52:33.871Z,0.98
2022-10-30T02:55:01.123Z,0.88
2022-10-30T02:57:28.441Z,0.63
2022-10-30T02:59:55.634Z,0.70
2022-10-30T03:02:22.958Z,0.75
2022-10-30T03:04:50.302Z,0.43
2022-10-30T03:07:17.552Z,0.80
2022-10-30T03:09:44.892Z,0.50
2022-10-30T03:12:12.070Z,0.73
2022-10-30T03:14:39.298Z,1.00
2022-10-30T03:17:06.688Z,0.57
2022-10-30T03:19:33.919Z,0.60
2022-10-30T03:22:01.127Z,0.60
2022-10-30T03:24:28.339Z,0.45
2022-10-30T03:26:55.665Z,0.50
2022-10-30T03:29:22.848Z,0.52
2022-10-30T03:31:50.053Z,0.50
2022-10-30T03:34:17.338Z,0.50
2022-10-30T03:36:44.604Z,0.45
2022-10-30T03:39:11.874Z,0.40
2022-10-30T03:41:39.128Z,0.55
2022-10-30T03:44:06.343Z,0.60
2022-10-30T03:46:33.583Z,0.50
2022-10-30T03:49:00.794Z,0.57
2022-10-30T03:51:27.983Z,0.65
2022-10-30T03:53:55.329Z,0.50
2022-10-30T03:56:22.513Z,0.70
2022-10-30T03:58:49.730Z,0.70
2022-10-30T04:01:17.096Z,0.80
2022-10-30T04:03:44.365Z,0.98
2022-10-30T04:06:11.731Z,0.77
2022-10-30T04:08:38.944Z,0.70
2022-10-30T04:11:06.357Z,0.70
2022-10-30T04:13:33.623Z,0.68
2022-10-30T04:16:00.852Z,0.52
2022-10-30T04:18:28.794Z,0.60
2022-10-30T04:20:56.401Z,0.80
2022-10-30T04:23:23.759Z,0.55
2022-10-30T04:25:50.958Z,0.60
2022-10-30T04:28:18.356Z,0.73
2022-10-30T04:30:46.990Z,0.55
2022-10-30T04:33:14.612Z,0.90
2022-10-30T04:35:43.776Z,0.65
2022-10-30T04:38:12.375Z,0.70
2022-10-30T04:40:41.302Z,0.98
2022-10-30T04:43:09.387Z,0.63
2022-10-30T04:45:37.368Z,0.90
2022-10-30T04:48:07.387Z,0.60
2022-10-30T04:50:35.138Z,0.80
2022-10-30T04:53:03.235Z,0.60
2022-10-30T04:55:30.865Z,0.70
2022-10-30T04:57:58.960Z,0.50
2022-10-30T05:00:27.296Z,0.60
2022-10-30T05:02:55.025Z,0.70
2022-10-30T05:05:22.639Z,0.80
2022-10-30T05:07:49.897Z,0.70
2022-10-30T05:10:18.412Z,0.50
2022-10-30T05:12:46.457Z,0.60
2022-10-30T05:15:14.397Z,0.60
2022-10-30T05:17:42.016Z,0.70
2022-10-30T05:20:10.563Z,1.60
2022-10-30T05:22:39.461Z,1.85
2022-10-30T05:25:06.922Z,1.50
2022-10-30T05:27:34.162Z,1.30
2022-10-30T05:30:01.350Z,1.20
2022-10-30T05:32:28.632Z,1.10
2022-10-30T05:34:55.842Z,1.00
2022-10-30T05:37:23.166Z,0.95
2022-10-30T05:39:50.353Z,1.20
2022-10-30T05:42:17.595Z,1.25
2022-10-30T05:45:00.492Z,0.80
2022-10-30T05:47:28.467Z,0.60
2022-10-30T05:49:55.689Z,0.70
2022-10-30T05:52:22.901Z,0.55
2022-10-30T05:54:50.136Z,0.55
2022-10-30T05:57:17.320Z,0.60
2022-10-30T05:59:44.595Z,0.68
2022-10-30T06:02:11.975Z,0.60
2022-10-30T06:04:39.178Z,0.65
2022-10-30T06:07:06.557Z,0.50
2022-10-30T06:09:33.879Z,0.60
2022-10-30T06:12:01.091Z,0.60
2022-10-30T06:14:28.352Z,0.50
2022-10-30T06:16:55.549Z,0.70
2022-10-30T06:19:22.792Z,0.55
2022-10-30T06:21:50.051Z,0.68
2022-10-30T06:24:17.269Z,0.90
2022-10-30T06:26:44.478Z,0.95
2022-10-30T06:29:11.673Z,0.70
2022-10-30T06:31:38.897Z,0.65
2022-10-30T06:34:06.094Z,0.45
2022-10-30T06:36:33.340Z,0.60
2022-10-30T06:39:00.576Z,0.98
2022-10-30T06:41:30.441Z,0.40
2022-10-30T06:43:58.033Z,0.60
2022-10-30T06:46:28.832Z,0.50
2022-10-30T06:48:59.910Z,0.70
2022-10-30T06:51:27.233Z,0.70
2022-10-30T06:53:54.608Z,0.60
2022-10-30T06:56:21.837Z,0.50
2022-10-30T06:58:49.074Z,0.70
2022-10-30T07:01:16.355Z,0.60
2022-10-30T07:03:43.601Z,1.73
2022-10-30T07:06:10.816Z,0.50
2022-10-30T07:08:38.045Z,0.50
2022-10-30T07:11:05.368Z,0.60
2022-10-30T07:13:32.680Z,0.80
2022-10-30T07:16:00.374Z,0.63
2022-10-30T07:18:27.695Z,0.80
2022-10-30T07:20:58.803Z,0.60
2022-10-30T07:23:26.107Z,0.70
2022-10-30T07:25:57.287Z,0.70
2022-10-30T07:28:28.357Z,0.60
2022-10-30T07:30:55.667Z,0.60
2022-10-30T07:33:22.995Z,0.70
2022-10-30T07:35:50.241Z,0.60
2022-10-30T07:38:18.037Z,0.60
2022-10-30T07:40:45.510Z,0.60
2022-10-30T07:43:13.431Z,0.90
2022-10-30T07:45:40.752Z,0.75
2022-10-30T07:48:08.036Z,0.60
2022-10-30T07:50:35.326Z,0.70
2022-10-30T07:53:02.550Z,0.70
2022-10-30T07:55:29.850Z,0.60
2022-10-30T07:57:57.419Z,0.70
2022-10-30T08:00:25.025Z,0.68
2022-10-30T08:02:53.092Z,0.50
2022-10-30T08:05:23.188Z,0.70
2022-10-30T08:07:52.985Z,0.60
2022-10-30T08:10:20.206Z,0.60
2022-10-30T08:12:48.262Z,0.60
2022-10-30T08:15:15.583Z,0.70
2022-10-30T08:17:46.521Z,0.80
2022-10-30T08:20:14.718Z,0.60
2022-10-30T08:22:48.554Z,0.70
2022-10-30T08:25:16.299Z,0.60
2022-10-30T08:28:02.088Z,0.68
2022-10-30T08:30:31.489Z,0.73
2022-10-30T08:32:59.702Z,0.70
2022-10-30T08:35:27.510Z,0.70
2022-10-30T08:38:03.050Z,0.60
2022-10-30T08:40:30.354Z,0.60
2022-10-30T08:42:58.500Z,0.80
2022-10-30T08:45:29.914Z,0.60
2022-10-30T08:48:03.349Z,0.80
2022-10-30T08:50:31.385Z,0.80
2022-10-30T08:53:02.585Z,0.90
2022-10-30T08:55:30.563Z,1.00
2022-10-30T08:57:58.034Z,0.68
2022-10-30T09:00:25.332Z,0.82
2022-10-30T09:02:52.884Z,1.00
2022-10-30T09:05:20.450Z,0.90
2022-10-30T09:07:48.047Z,1.40
2022-10-30T09:10:15.377Z,1.48
2022-10-30T09:12:42.621Z,0.95
2022-10-30T09:15:10.041Z,0.90
2022-10-30T09:17:37.277Z,1.27
2022-10-30T09:20:04.769Z,1.27
2022-10-30T09:22:31.961Z,1.45
2022-10-30T09:24:59.161Z,1.13
2022-10-30T09:27:27.560Z,1.48
2022-10-30T09:29:54.804Z,1.35
2022-10-30T09:32:22.632Z,1.63
2022-10-30T09:34:49.987Z,2.33
2022-10-30T09:37:19.135Z,2.28
2022-10-30T09:39:46.380Z,1.98
2022-10-30T09:42:29.185Z,2.20
2022-10-30T09:45:23.355Z,1.95
2022-10-30T09:47:56.940Z,1.95
2022-10-30T09:50:34.517Z,1.88
2022-10-30T09:53:10.716Z,2.28
2022-10-30T09:55:56.758Z,2.30
2022-10-30T09:58:34.338Z,3.22
2022-10-30T10:01:14.125Z,3.05
2022-10-30T10:04:00.389Z,3.25
2022-10-30T10:06:28.030Z,2.33
2022-10-30T10:08:57.858Z,2.65
2022-10-30T10:11:34.927Z,2.05
2022-10-30T10:14:12.319Z,2.50
2022-10-30T10:16:41.474Z,2.35
2022-10-30T10:19:27.310Z,2.20
2022-10-30T10:21:54.542Z,1.77
2022-10-30T10:24:23.380Z,1.48
2022-10-30T10:26:51.525Z,1.65
2022-10-30T10:29:26.390Z,1.55
2022-10-30T10:32:08.893Z,2.13
2022-10-30T10:34:36.153Z,2.25
2022-10-30T10:37:07.999Z,1.90
2022-10-30T10:39:55.997Z,2.17
2022-10-30T10:42:30.764Z,3.10
2022-10-30T10:45:00.854Z,2.70
2022-10-30T10:47:46.921Z,2.00
2022-10-30T10:50:26.970Z,2.30
2022-10-30T10:53:01.640Z,2.17
2022-10-30T10:55:32.926Z,1.60
2022-10-30T10:58:03.683Z,1.30
2022-10-30T11:00:31.638Z,1.50
2022-10-30T11:03:06.341Z,1.50
2022-10-30T11:05:36.343Z,1.70
2022-10-30T11:08:12.636Z,1.63
2022-10-30T11:10:40.120Z,1.60
2022-10-30T11:13:07.368Z,1.50
2022-10-30T11:15:37.914Z,1.52
2022-10-30T11:18:09.358Z,1.90
2022-10-30T11:20:39.721Z,2.55
2022-10-30T11:23:27.166Z,1.83
2022-10-30T11:25:54.381Z,2.38
2022-10-30T11:28:32.690Z,2.00
2022-10-30T11:31:17.938Z,1.88
2022-10-30T11:33:45.207Z,2.85
2022-10-30T11:36:15.969Z,2.00
2022-10-30T11:38:43.434Z,1.92
2022-10-30T11:41:10.967Z,1.73
2022-10-30T11:43:39.473Z,1.80
2022-10-30T11:46:09.569Z,2.25
2022-10-30T11:48:41.366Z,2.03
2022-10-30T11:51:08.735Z,1.90
2022-10-30T11:53:40.161Z,2.35
2022-10-30T11:56:18.190Z,2.25
2022-10-30T11:58:47.893Z,2.60
2022-10-30T12:01:22.132Z,2.70
2022-10-30T12:03:49.512Z,2.35
2022-10-30T12:06:21.140Z,2.08
2022-10-30T12:09:01.832Z,1.67
2022-10-30T12:11:30.560Z,1.35
2022-10-30T12:13:58.979Z,1.33
2022-10-30T12:16:26.784Z,1.30
2022-10-30T12:19:00.193Z,1.20
2022-10-30T12:21:28.378Z,1.40
2022-10-30T12:23:57.240Z,1.38
2022-10-30T12:26:25.882Z,1.30
2022-10-30T12:28:56.442Z,1.38
2022-10-30T12:31:29.994Z,1.50
2022-10-30T12:36:51.075Z,1.10
2022-10-30T12:39:32.390Z,1.38
2022-10-30T12:42:04.907Z,1.20
2022-10-30T12:44:37.469Z,1.30
2022-10-30T12:47:12.881Z,1.25
2022-10-30T12:49:50.715Z,1.15
2022-10-30T12:52:25.525Z,1.17
2022-10-30T12:55:01.940Z,1.25
2022-10-30T12:57:34.362Z,1.58
2022-10-30T13:00:04.415Z,1.20
2022-10-30T13:02:39.993Z,1.00
2022-10-30T13:05:28.320Z,1.13
2022-10-30T13:08:05.615Z,1.10
2022-10-30T13:10:40.665Z,1.27
2022-10-30T13:13:13.867Z,1.40
2022-10-30T13:15:51.583Z,1.20
2022-10-30T13:18:20.231Z,1.02
2022-10-30T13:20:57.122Z,1.27
2022-10-30T13:23:27.325Z,1.00
2022-10-30T13:25:54.533Z,1.00
2022-10-30T13:28:27.911Z,1.00
2022-10-30T13:31:07.196Z,1.00
2022-10-30T13:33:40.154Z,1.02
2022-10-30T13:36:19.956Z,1.00
2022-10-30T13:38:47.233Z,0.88
2022-10-30T13:41:14.535Z,0.80
2022-10-30T13:43:57.039Z,1.00
2022-10-30T13:46:42.767Z,1.17
2022-10-30T13:49:14.834Z,1.00
2022-10-30T13:51:44.608Z,1.17
2022-10-30T13:54:18.247Z,0.80
2022-10-30T13:56:46.397Z,1.30
2022-10-30T13:59:13.559Z,0.90
2022-10-30T14:01:43.891Z,1.10
2022-10-30T14:04:16.956Z,1.00
2022-10-30T14:06:59.551Z,1.00
2022-10-30T14:09:35.808Z,0.80
2022-10-30T14:12:21.447Z,0.80
2022-10-30T14:14:49.233Z,0.80
2022-10-30T14:17:18.007Z,0.80
2022-10-30T14:20:08.504Z,0.80
2022-10-30T14:22:40.541Z,0.70
2022-10-30T14:25:15.221Z,0.70
2022-10-30T14:27:42.509Z,1.15
2022-10-30T14:30:19.692Z,0.90
2022-10-30T14:32:53.430Z,0.90
2022-10-30T14:35:33.064Z,1.08
2022-10-30T14:38:16.794Z,0.90
2022-10-30T14:40:57.329Z,1.00
2022-10-30T14:43:29.976Z,1.02
2022-10-30T14:46:00.559Z,1.02
2022-10-30T14:48:45.996Z,1.20
2022-10-30T14:51:29.995Z,1.40
2022-10-30T14:53:57.201Z,1.02
2022-10-30T14:56:50.663Z,0.88
2022-10-30T14:59:18.224Z,0.85
2022-10-30T15:01:55.919Z,0.70
2022-10-30T15:04:26.881Z,0.80
2022-10-30T15:07:04.356Z,0.60
2022-10-30T15:09:45.870Z,0.80
2022-10-30T15:12:16.052Z,0.50
2022-10-30T15:14:53.960Z,0.60
2022-10-30T15:17:38.056Z,0.60
2022-10-30T15:20:07.764Z,0.70
2022-10-30T15:22:36.201Z,0.65
2022-10-30T15:25:04.189Z,0.70
2022-10-30T15:27:33.122Z,0.70
2022-10-30T15:30:02.267Z,0.68
2022-10-30T15:32:29.544Z,0.77
2022-10-30T15:35:04.921Z,0.80
2022-10-30T15:37:32.585Z,1.05
2022-10-30T15:40:18.355Z,0.82
2022-10-30T15:42:47.078Z,0.90
2022-10-30T15:45:18.650Z,0.68
2022-10-30T15:47:48.463Z,0.73
2022-10-30T15:50:16.718Z,0.55
2022-10-30T15:52:44.743Z,0.70
2022-10-30T15:55:15.631Z,0.70
2022-10-30T16:00:34.477Z,1.10
2022-10-30T16:03:03.483Z,0.95
2022-10-30T16:05:31.124Z,0.80
2022-10-30T16:08:02.434Z,0.75
2022-10-30T16:10:32.858Z,0.80
2022-10-30T16:13:00.534Z,0.73
2022-10-30T16:15:29.891Z,0.80
2022-10-30T16:18:09.462Z,0.80
2022-10-30T16:20:37.110Z,0.70
2022-10-30T16:23:05.181Z,0.82
2022-10-30T16:25:34.242Z,0.75
2022-10-30T16:28:01.882Z,0.90
2022-10-30T16:30:32.020Z,0.80
2022-10-30T16:32:59.731Z,0.70
2022-10-30T16:35:27.974Z,0.60
2022-10-30T16:37:56.535Z,0.55
2022-10-30T16:40:25.823Z,0.60
2022-10-30T16:42:58.322Z,0.60
2022-10-30T16:45:25.824Z,0.47
2022-10-30T16:48:08.395Z,0.60
2022-10-30T16:50:38.294Z,0.70
2022-10-30T16:53:10.422Z,1.25
2022-10-30T16:55:38.723Z,1.50
2022-10-30T16:58:06.109Z,1.20
2022-10-30T17:00:36.450Z,1.48
2022-10-30T17:03:08.757Z,1.30
2022-10-30T17:05:39.670Z,1.30
2022-10-30T17:08:09.283Z,1.35
2022-10-30T17:10:43.506Z,1.00
2022-10-30T17:13:29.465Z,0.82
2022-10-30T17:15:56.938Z,0.80
2022-10-30T17:18:30.605Z,0.70
2022-10-30T17:20:59.993Z,0.50
2022-10-30T17:23:27.214Z,0.60
2022-10-30T17:25:55.866Z,0.40
2022-10-30T17:28:30.015Z,0.45
2022-10-30T17:30:57.321Z,0.40
2022-10-30T17:33:27.640Z,0.40
2022-10-30T17:38:27.488Z,0.50
2022-10-30T17:40:54.783Z,2.05
2022-10-30T17:43:23.498Z,1.73
2022-10-30T17:45:51.497Z,1.40
2022-10-30T17:48:18.976Z,1.88
2022-10-30T17:50:46.166Z,1.40
2022-10-30T17:53:18.630Z,1.40
2022-10-30T17:55:50.608Z,1.08
2022-10-30T17:58:20.319Z,0.88
2022-10-30T18:00:47.623Z,0.82
2022-10-30T18:03:14.929Z,0.77
2022-10-30T18:05:43.177Z,0.50
2022-10-30T18:08:10.567Z,0.50
2022-10-30T18:10:37.813Z,0.80
2022-10-30T18:13:05.081Z,0.70
2022-10-30T18:15:35.514Z,0.80
2022-10-30T18:18:03.459Z,0.50
2022-10-30T18:20:30.721Z,0.70
2022-10-30T18:22:58.737Z,0.90
2022-10-30T18:25:32.735Z,1.10
2022-10-30T18:27:59.925Z,1.02
2022-10-30T18:30:29.118Z,0.95
2022-10-30T18:32:56.984Z,0.80
2022-10-30T18:35:36.202Z,0.70
2022-10-30T18:38:03.793Z,0.93
2022-10-30T18:40:31.068Z,0.80
2022-10-30T18:42:58.792Z,0.73
2022-10-30T18:45:27.758Z,0.65
2022-10-30T18:47:55.809Z,0.80
2022-10-30T18:50:24.029Z,0.80
2022-10-30T18:52:51.630Z,0.77
2022-10-30T18:55:23.148Z,0.60
2022-10-30T18:57:51.340Z,0.68
2022-10-30T19:00:20.217Z,0.60
2022-10-30T19:02:47.635Z,0.70
2022-10-30T19:05:20.618Z,0.50
2022-10-30T19:07:48.102Z,0.50
2022-10-30T19:10:16.612Z,0.45
2022-10-30T19:13:04.085Z,0.50
2022-10-30T19:15:35.497Z,0.50
2022-10-30T19:18:03.157Z,0.60
2022-10-30T19:20:44.011Z,0.70
2022-10-30T19:23:22.775Z,0.93
2022-10-30T19:25:50.748Z,0.70
2022-10-30T19:28:18.897Z,0.60
2022-10-30T19:30:54.905Z,0.40
2022-10-30T19:33:22.958Z,0.80
2022-10-30T19:35:54.960Z,0.50
2022-10-30T19:38:22.702Z,0.90
2022-10-30T19:40:50.383Z,0.90
2022-10-30T19:43:17.693Z,1.10
2022-10-30T19:45:45.360Z,0.70
2022-10-30T19:48:20.749Z,0.90
2022-10-30T19:50:51.900Z,0.52
2022-10-30T19:53:19.363Z,0.88
2022-10-30T19:55:47.688Z,0.80
2022-10-30T19:58:16.939Z,0.60
2022-10-30T20:00:46.719Z,0.50
2022-10-30T20:03:15.392Z,0.43
2022-10-30T20:05:45.448Z,0.55
2022-10-30T20:08:17.801Z,0.60
2022-10-30T20:10:49.690Z,0.40
2022-10-30T20:13:17.020Z,0.30
2022-10-30T20:15:44.248Z,0.75
2022-10-30T20:18:14.173Z,0.60
2022-10-30T20:20:41.889Z,1.10
2022-10-30T20:23:09.275Z,0.90
2022-10-30T20:25:38.070Z,0.80
2022-10-30T20:28:14.259Z,0.70
2022-10-30T20:30:41.628Z,0.45
2022-10-30T20:33:11.831Z,0.70
2022-10-30T20:35:39.062Z,0.55
2022-10-30T20:38:06.290Z,0.90
2022-10-30T20:40:34.195Z,0.65
2022-10-30T20:43:03.127Z,0.50
2022-10-30T20:45:30.922Z,0.63
2022-10-30T20:47:59.677Z,0.55
2022-10-30T20:50:27.282Z,0.50
2022-10-30T20:52:54.659Z,0.40
2022-10-30T20:55:22.054Z,0.60
2022-10-30T20:57:49.312Z,0.40
2022-10-30T21:00:16.913Z,0.50
2022-10-30T21:02:44.158Z,0.40
2022-10-30T21:05:23.648Z,0.40
2022-10-30T21:07:59.164Z,0.40
2022-10-30T21:10:30.495Z,0.30
2022-10-30T21:12:59.796Z,0.40
2022-10-30T21:15:29.784Z,0.60
2022-10-30T21:18:00.039Z,0.70
2022-10-30T21:20:28.586Z,0.50
2022-10-30T21:22:55.898Z,1.10
2022-10-30T21:25:23.199Z,0.82
2022-10-30T21:27:50.424Z,0.90
2022-10-30T21:30:17.671Z,0.70
2022-10-30T21:32:44.917Z,0.50
2022-10-30T21:35:12.116Z,0.40
2022-10-30T21:37:39.346Z,0.60
2022-10-30T21:40:07.066Z,0.55
2022-10-30T21:42:34.391Z,0.50
2022-10-30T21:45:01.622Z,0.60
2022-10-30T21:47:28.844Z,0.70
2022-10-30T21:49:56.024Z,0.68
2022-10-30T21:52:23.641Z,0.80
2022-10-30T21:54:50.968Z,0.55
2022-10-30T21:57:18.735Z,0.60
2022-10-30T21:59:47.976Z,0.40
2022-10-30T22:02:15.475Z,0.43
2022-10-30T22:04:42.863Z,0.50
2022-10-30T22:07:10.085Z,0.50
2022-10-30T22:09:37.797Z,0.88
2022-10-30T22:12:05.162Z,0.82
2022-10-30T22:14:32.423Z,0.63
2022-10-30T22:16:59.617Z,0.60
2022-10-30T22:19:26.876Z,0.52
2022-10-30T22:21:54.094Z,0.30
2022-10-30T22:24:21.309Z,0.50
2022-10-30T22:26:48.496Z,0.50
2022-10-30T22:29:15.922Z,0.40
2022-10-30T22:31:43.250Z,0.35
2022-10-30T22:34:10.494Z,0.50
2022-10-30T22:36:37.679Z,0.70
2022-10-30T22:39:06.471Z,0.80
2022-10-30T22:41:37.577Z,1.00
2022-10-30T22:44:07.963Z,1.00
2022-10-30T22:46:36.090Z,0.90
2022-10-30T22:49:03.562Z,1.00
2022-10-30T22:51:32.549Z,0.60
2022-10-30T22:54:01.028Z,0.70
2022-10-30T22:56:29.686Z,0.70
2022-10-30T22:58:56.942Z,0.60
2022-10-30T23:01:25.839Z,0.70
2022-10-30T23:03:54.014Z,0.60
2022-10-30T23:06:21.363Z,0.70
2022-10-30T23:08:48.922Z,0.73
2022-10-30T23:11:16.247Z,0.52
2022-10-30T23:13:45.305Z,0.57
2022-10-30T23:16:14.188Z,0.50
2022-10-30T23:18:41.573Z,0.40
2022-10-30T23:21:11.287Z,0.50
2022-10-30T23:23:38.918Z,0.40
2022-10-30T23:26:07.671Z,0.70
2022-10-30T23:28:34.914Z,0.60
2022-10-30T23:31:04.430Z,0.43
2022-10-30T23:33:31.632Z,0.43
2022-10-30T23:35:59.882Z,0.40
2022-10-30T23:38:27.426Z,0.50
2022-10-30T23:40:54.647Z,0.40
2022-10-30T23:43:22.096Z,0.50
2022-10-30T23:45:49.298Z,0.45
2022-10-30T23:48:16.500Z,0.50
2022-10-30T23:50:43.736Z,0.50
2022-10-30T23:53:11.150Z,0.30
2022-10-30T23:55:38.405Z,0.35
2022-10-30T23:58:05.683Z,0.40
